createdAt,value
2022-12-25T00:01:40.946Z,88.96
2022-12-25T00:04:09.834Z,89.47
2022-12-25T00:06:38.732Z,89.30
2022-12-25T00:09:07.590Z,89.46
2022-12-25T00:11:36.412Z,89.64
2022-12-25T00:14:05.369Z,89.58
2022-12-25T00:16:35.689Z,89.63
2022-12-25T00:19:04.647Z,89.64
2022-12-25T00:21:33.532Z,89.18
2022-12-25T00:24:03.622Z,89.44
2022-12-25T00:26:32.505Z,88.84
2022-12-25T00:29:01.275Z,89.12
2022-12-25T00:31:30.021Z,88.67
2022-12-25T00:34:00.185Z,88.40
2022-12-25T00:36:28.885Z,89.08
2022-12-25T00:38:58.689Z,89.28
2022-12-25T00:41:41.292Z,90.01
2022-12-25T00:44:14.014Z,89.25
2022-12-25T00:46:44.182Z,89.40
2022-12-25T00:49:14.896Z,89.84
2022-12-25T00:51:43.816Z,89.75
2022-12-25T00:54:12.668Z,89.88
2022-12-25T00:56:41.541Z,89.59
2022-12-25T00:59:10.543Z,89.33
2022-12-25T01:01:40.287Z,89.40
2022-12-25T01:04:10.057Z,89.58
2022-12-25T01:06:40.867Z,89.81
2022-12-25T01:09:27.177Z,89.54
2022-12-25T01:11:56.055Z,89.35
2022-12-25T01:14:24.803Z,89.31
2022-12-25T01:16:53.757Z,88.88
2022-12-25T01:19:22.557Z,88.80
2022-12-25T01:21:52.753Z,88.18
2022-12-25T01:24:21.498Z,87.94
2022-12-25T01:26:50.221Z,87.63
2022-12-25T03:31:39.274Z,86.58
2022-12-25T03:34:50.151Z,86.55
2022-12-25T03:37:55.052Z,87.22
2022-12-25T03:40:56.483Z,86.29
2022-12-25T03:43:57.464Z,85.99
2022-12-25T03:46:51.135Z,86.59
2022-12-25T03:49:45.449Z,86.00
2022-12-25T03:52:37.756Z,85.74
2022-12-25T03:55:28.923Z,86.24
2022-12-25T03:58:15.541Z,86.85
2022-12-25T04:01:03.370Z,86.67
2022-12-25T04:03:49.614Z,86.38
2022-12-25T04:06:40.176Z,87.04
2022-12-25T04:09:26.624Z,87.47
2022-12-25T04:12:12.861Z,87.25
2022-12-25T04:15:10.597Z,86.92
2022-12-25T04:17:58.215Z,87.10
2022-12-25T04:20:44.558Z,86.03
2022-12-25T04:23:30.813Z,86.41
2022-12-25T04:26:16.425Z,85.67
2022-12-25T04:29:02.850Z,85.12
2022-12-25T04:31:49.171Z,85.50
2022-12-25T04:34:36.541Z,85.03
2022-12-25T04:37:05.404Z,85.37
2022-12-25T04:39:34.140Z,86.34
2022-12-25T04:42:02.921Z,86.49
2022-12-25T04:44:31.738Z,86.12
2022-12-25T04:47:02.508Z,87.09
2022-12-25T04:49:36.192Z,86.43
2022-12-25T04:52:05.094Z,86.11
2022-12-25T04:54:34.105Z,87.19
2022-12-25T04:57:03.023Z,87.91
2022-12-25T04:59:31.816Z,87.34
2022-12-25T05:02:01.041Z,86.57
2022-12-25T05:04:31.220Z,87.29
2022-12-25T05:07:01.624Z,87.47
2022-12-25T05:09:30.764Z,87.09
2022-12-25T05:11:59.704Z,87.22
2022-12-25T05:14:29.655Z,87.47
2022-12-25T05:16:58.412Z,87.39
2022-12-25T05:19:28.191Z,87.64
2022-12-25T05:21:58.140Z,87.48
2022-12-25T05:24:29.680Z,86.96
2022-12-25T05:26:58.573Z,86.35
2022-12-25T05:29:27.539Z,86.51
2022-12-25T05:31:56.232Z,85.86
2022-12-25T05:34:25.172Z,86.80
2022-12-25T05:36:53.877Z,86.34
2022-12-25T05:39:22.714Z,86.93
2022-12-25T05:41:52.892Z,86.17
2022-12-25T05:44:23.091Z,85.31
2022-12-25T05:46:53.022Z,85.23
2022-12-25T05:49:26.109Z,85.35
2022-12-25T05:51:54.820Z,85.56
2022-12-25T05:54:23.564Z,85.39
2022-12-25T05:56:53.808Z,86.23
2022-12-25T05:59:22.600Z,86.75
2022-12-25T06:01:51.524Z,86.48
2022-12-25T06:04:20.393Z,86.23
2022-12-25T06:06:52.312Z,85.64
2022-12-25T06:09:21.534Z,86.68
2022-12-25T06:11:50.324Z,85.74
2022-12-25T06:14:20.541Z,85.21
2022-12-25T06:16:53.579Z,85.03
2022-12-25T06:19:23.073Z,85.98
2022-12-25T06:21:56.021Z,86.00
2022-12-25T06:24:25.576Z,85.72
2022-12-25T06:26:54.598Z,85.18
2022-12-25T06:29:24.926Z,85.15
2022-12-25T06:31:57.406Z,85.06
2022-12-25T06:34:27.211Z,84.89
2022-12-25T06:36:56.053Z,84.51
2022-12-25T06:39:25.640Z,84.35
2022-12-25T06:41:54.567Z,83.98
2022-12-25T06:44:24.780Z,85.50
2022-12-25T06:46:56.258Z,85.09
2022-12-25T06:49:26.598Z,86.40
2022-12-25T06:51:55.829Z,86.41
2022-12-25T06:54:24.749Z,86.04
2022-12-25T06:56:54.702Z,86.75
2022-12-25T06:59:27.047Z,85.91
2022-12-25T07:02:00.714Z,86.28
2022-12-25T07:04:39.059Z,86.89
2022-12-25T07:07:11.849Z,87.05
2022-12-25T07:09:42.517Z,86.84
2022-12-25T07:12:19.601Z,86.29
2022-12-25T07:14:50.456Z,87.15
2022-12-25T07:17:20.969Z,86.46
2022-12-25T07:19:50.443Z,86.24
2022-12-25T07:22:19.431Z,86.23
2022-12-25T07:24:48.086Z,86.53
2022-12-25T07:27:17.193Z,86.00
2022-12-25T07:29:46.373Z,85.88
2022-12-25T07:32:16.906Z,86.03
2022-12-25T07:34:45.736Z,85.77
2022-12-25T07:37:15.501Z,86.73
2022-12-25T07:39:44.505Z,87.05
2022-12-25T07:42:13.206Z,86.88
2022-12-25T07:44:42.655Z,86.46
2022-12-25T07:47:11.508Z,86.71
2022-12-25T07:49:42.409Z,86.51
2022-12-25T07:52:12.729Z,85.90
2022-12-25T07:54:44.274Z,86.01
2022-12-25T07:57:13.223Z,85.91
2022-12-25T07:59:42.069Z,85.44
2022-12-25T08:02:12.522Z,86.28
2022-12-25T08:04:43.790Z,87.14
2022-12-25T08:07:12.811Z,86.97
2022-12-25T08:09:43.177Z,87.46
2022-12-25T08:12:13.666Z,87.87
2022-12-25T08:14:43.717Z,87.08
2022-12-25T08:17:16.788Z,87.58
2022-12-25T08:19:49.476Z,88.67
2022-12-25T08:22:21.005Z,88.53
2022-12-25T08:24:53.687Z,88.43
2022-12-25T08:27:27.489Z,89.38
2022-12-25T08:29:57.919Z,88.87
2022-12-25T08:32:28.331Z,88.73
2022-12-25T08:35:09.231Z,88.38
2022-12-25T08:37:38.204Z,88.22
2022-12-25T08:40:08.813Z,88.66
2022-12-25T08:42:38.208Z,88.59
2022-12-25T08:45:08.025Z,88.96
2022-12-25T08:47:36.878Z,88.53
2022-12-25T08:50:09.114Z,88.54
2022-12-25T08:52:38.257Z,88.17
2022-12-25T08:55:08.495Z,88.04
2022-12-25T08:57:37.321Z,87.94
2022-12-25T09:00:08.423Z,87.50
2022-12-25T09:02:39.355Z,87.47
2022-12-25T09:05:11.368Z,87.38
2022-12-25T09:07:40.132Z,87.32
2022-12-25T09:10:12.820Z,88.05
2022-12-25T09:12:41.816Z,89.01
2022-12-25T09:15:11.643Z,89.82
2022-12-25T09:17:40.531Z,90.06
2022-12-25T09:20:11.705Z,90.88
2022-12-25T09:22:40.539Z,90.47
2022-12-25T09:25:10.365Z,90.65
2022-12-25T09:27:39.350Z,90.58
2022-12-25T09:30:10.120Z,89.91
2022-12-25T09:32:40.422Z,90.21
2022-12-25T09:35:11.394Z,90.21
2022-12-25T09:37:40.280Z,90.55
2022-12-25T09:40:12.926Z,91.19
2022-12-25T09:42:42.973Z,90.76
2022-12-25T09:45:17.727Z,92.22
2022-12-25T09:52:43.778Z,93.34
2022-12-25T09:55:20.679Z,92.41
2022-12-25T09:57:54.332Z,92.19
2022-12-25T10:00:25.095Z,91.97
2022-12-25T10:03:27.746Z,92.31
2022-12-25T10:06:18.001Z,94.54
2022-12-25T10:12:50.736Z,93.52
2022-12-25T10:15:37.835Z,93.48
2022-12-25T10:18:44.658Z,93.34
2022-12-25T10:21:18.874Z,94.34
2022-12-25T10:23:53.433Z,95.75
2022-12-25T10:26:25.487Z,95.92
2022-12-25T10:29:03.039Z,96.73
2022-12-25T10:31:37.210Z,96.52
2022-12-25T10:34:07.624Z,97.08
2022-12-25T10:36:36.472Z,96.48
2022-12-25T10:39:05.476Z,96.06
2022-12-25T10:41:58.100Z,95.70
2022-12-25T10:44:28.436Z,96.90
2022-12-25T10:46:59.921Z,97.65
2022-12-25T10:49:34.480Z,98.14
2022-12-25T10:52:04.030Z,98.21
2022-12-25T10:54:36.256Z,98.23
2022-12-25T10:57:16.625Z,98.46
2022-12-25T10:59:49.389Z,98.07
2022-12-25T11:02:25.372Z,98.51
2022-12-25T11:05:03.823Z,98.80
2022-12-25T11:07:34.583Z,100.00
2022-12-25T11:10:24.833Z,100.00
2022-12-25T11:12:55.077Z,100.00
2022-12-25T11:15:39.234Z,100.00
2022-12-25T11:18:22.821Z,100.00
2022-12-25T11:20:54.207Z,100.00
2022-12-25T11:23:26.880Z,100.00
2022-12-25T11:26:01.810Z,100.00
2022-12-25T11:28:34.000Z,100.00
2022-12-25T11:31:10.363Z,100.00
2022-12-25T11:33:50.536Z,100.00
2022-12-25T11:36:30.603Z,100.00
2022-12-25T11:39:06.487Z,100.00
2022-12-25T11:41:39.353Z,100.00
2022-12-25T11:44:34.728Z,100.00
2022-12-25T11:47:16.160Z,100.00
2022-12-25T11:49:57.314Z,100.00
2022-12-25T11:52:35.977Z,100.00
2022-12-25T11:55:15.405Z,100.00
2022-12-25T11:57:46.922Z,100.00
2022-12-25T12:00:18.860Z,100.00
2022-12-25T12:02:59.619Z,100.00
2022-12-25T12:05:39.922Z,100.00
2022-12-25T12:08:11.522Z,100.00
2022-12-25T12:11:16.189Z,100.00
2022-12-25T12:14:08.055Z,100.00
2022-12-25T12:16:37.489Z,100.00
2022-12-25T12:19:26.969Z,100.00
2022-12-25T12:22:00.183Z,100.00
2022-12-25T12:24:36.545Z,100.00
2022-12-25T12:27:18.389Z,100.00
2022-12-25T12:29:52.239Z,100.00
2022-12-25T12:32:37.601Z,100.00
2022-12-25T12:35:20.859Z,100.00
2022-12-25T12:37:54.850Z,100.00
2022-12-25T12:40:31.542Z,100.00
2022-12-25T12:43:01.045Z,100.00
2022-12-25T12:45:35.073Z,100.00
2022-12-25T12:48:16.014Z,100.00
2022-12-25T12:50:46.272Z,100.00
2022-12-25T12:53:30.073Z,99.81
2022-12-25T12:56:11.846Z,99.97
2022-12-25T12:58:50.072Z,99.95
2022-12-25T13:01:49.556Z,99.49
2022-12-25T13:04:57.272Z,99.32
2022-12-25T13:07:53.527Z,98.88
2022-12-25T13:10:31.342Z,98.76
2022-12-25T13:13:06.929Z,98.58
2022-12-25T13:15:37.316Z,98.25
2022-12-25T13:18:11.401Z,98.19
2022-12-25T13:20:48.203Z,98.20
2022-12-25T13:23:28.279Z,98.45
2022-12-25T13:25:59.264Z,98.45
2022-12-25T13:28:30.730Z,98.05
2022-12-25T13:31:14.871Z,98.55
2022-12-25T13:33:48.747Z,98.25
2022-12-25T13:36:18.235Z,98.41
2022-12-25T13:38:52.412Z,98.93
2022-12-25T13:41:41.862Z,98.88
2022-12-25T13:44:21.278Z,98.56
2022-12-25T13:46:50.283Z,98.45
2022-12-25T13:49:22.911Z,99.05
2022-12-25T13:51:53.204Z,99.38
2022-12-25T13:54:23.329Z,99.07
2022-12-25T13:56:55.825Z,98.67
2022-12-25T13:59:27.210Z,98.62
2022-12-25T14:01:57.733Z,98.48
2022-12-25T14:04:26.664Z,98.10
2022-12-25T14:06:55.485Z,98.41
2022-12-25T14:09:25.857Z,98.36
2022-12-25T14:11:54.856Z,98.71
2022-12-25T14:14:27.031Z,98.80
2022-12-25T14:17:00.465Z,98.47
2022-12-25T14:19:31.780Z,98.97
2022-12-25T14:22:04.096Z,99.19
2022-12-25T14:24:36.440Z,99.24
2022-12-25T14:27:08.494Z,98.79
2022-12-25T14:29:41.330Z,98.70
2022-12-25T14:32:17.233Z,98.54
2022-12-25T14:34:48.495Z,98.31
2022-12-25T14:37:22.035Z,98.18
2022-12-25T14:40:00.479Z,98.22
2022-12-25T14:42:32.397Z,97.58
2022-12-25T14:45:05.724Z,97.73
2022-12-25T14:47:52.072Z,97.50
2022-12-25T14:50:30.572Z,97.32
2022-12-25T14:53:00.986Z,97.15
2022-12-25T14:55:32.228Z,96.94
2022-12-25T14:58:08.145Z,97.19
2022-12-25T15:00:40.284Z,96.81
2022-12-25T15:03:22.339Z,96.63
2022-12-25T15:06:01.454Z,96.35
2022-12-25T15:08:32.286Z,96.36
2022-12-25T15:11:03.608Z,96.29
2022-12-25T15:13:34.328Z,96.48
2022-12-25T15:16:15.965Z,96.90
2022-12-25T15:18:49.171Z,97.14
2022-12-25T15:21:24.589Z,97.26
2022-12-25T15:23:55.196Z,97.63
2022-12-25T15:26:26.453Z,97.67
2022-12-25T15:28:55.224Z,97.39
2022-12-25T15:31:27.190Z,97.33
2022-12-25T15:33:58.192Z,97.07
2022-12-25T15:36:29.073Z,96.83
2022-12-25T15:38:58.142Z,96.41
2022-12-25T15:41:49.729Z,96.17
2022-12-25T15:44:19.014Z,96.19
2022-12-25T15:46:48.645Z,95.85
2022-12-25T15:49:18.593Z,96.19
2022-12-25T15:51:48.517Z,96.50
2022-12-25T15:54:17.242Z,96.49
2022-12-25T15:56:51.704Z,96.82
2022-12-25T15:59:22.580Z,97.61
2022-12-25T16:01:54.115Z,97.13
2022-12-25T16:04:25.317Z,96.99
2022-12-25T16:06:54.198Z,97.15
2022-12-25T16:09:24.391Z,96.90
2022-12-25T16:11:54.562Z,96.92
2022-12-25T16:14:23.280Z,97.23
2022-12-25T16:16:51.951Z,97.53
2022-12-25T16:19:20.706Z,97.80
2022-12-25T16:21:49.505Z,97.59
2022-12-25T16:24:18.803Z,97.84
2022-12-25T16:26:47.577Z,98.41
2022-12-25T16:29:18.085Z,98.29
2022-12-25T16:31:46.872Z,98.05
2022-12-25T16:34:15.732Z,98.43
2022-12-25T16:36:44.478Z,98.06
2022-12-25T16:39:13.480Z,97.49
2022-12-25T16:41:42.167Z,97.64
2022-12-25T16:44:11.968Z,97.58
2022-12-25T16:46:42.483Z,98.10
2022-12-25T16:49:11.371Z,97.92
2022-12-25T16:51:40.097Z,97.70
2022-12-25T16:54:09.912Z,97.80
2022-12-25T16:56:38.754Z,98.75
2022-12-25T16:59:07.592Z,98.60
2022-12-25T17:01:38.086Z,99.50
2022-12-25T17:04:08.579Z,99.90
2022-12-25T17:06:38.612Z,99.87
2022-12-25T17:09:07.759Z,100.00
2022-12-25T17:11:36.572Z,100.00
2022-12-25T17:14:06.903Z,100.00
2022-12-25T17:16:39.150Z,100.00
2022-12-25T17:19:17.838Z,100.00
2022-12-25T17:21:48.613Z,100.00
2022-12-25T17:24:18.216Z,100.00
2022-12-25T17:26:47.200Z,100.00
2022-12-25T17:29:21.717Z,100.00
2022-12-25T17:31:52.043Z,100.00
2022-12-25T17:34:22.415Z,100.00
2022-12-25T17:36:51.385Z,100.00
2022-12-25T17:39:20.266Z,100.00
2022-12-25T17:41:51.538Z,100.00
2022-12-25T17:44:22.047Z,100.00
2022-12-25T17:46:51.755Z,100.00
2022-12-25T17:49:23.222Z,100.00
2022-12-25T17:51:52.353Z,100.00
2022-12-25T17:54:22.375Z,100.00
2022-12-25T17:56:51.306Z,100.00
2022-12-25T17:59:21.647Z,100.00
2022-12-25T18:01:50.835Z,100.00
2022-12-25T18:04:21.336Z,100.00
2022-12-25T18:06:50.122Z,100.00
2022-12-25T18:09:19.823Z,100.00
2022-12-25T18:11:49.012Z,100.00
2022-12-25T18:14:18.461Z,100.00
2022-12-25T18:16:47.704Z,100.00
2022-12-25T18:19:19.739Z,100.00
2022-12-25T18:21:51.486Z,100.00
2022-12-25T18:24:20.263Z,100.00
2022-12-25T18:26:49.257Z,100.00
2022-12-25T18:29:19.260Z,100.00
2022-12-25T18:31:48.206Z,100.00
2022-12-25T18:34:17.307Z,100.00
2022-12-25T18:36:47.306Z,100.00
2022-12-25T18:39:17.827Z,100.00
2022-12-25T18:42:15.926Z,100.00
2022-12-25T18:44:44.970Z,100.00
2022-12-25T18:47:13.896Z,100.00
2022-12-25T18:49:43.058Z,100.00
2022-12-25T18:52:47.436Z,100.00
2022-12-25T18:55:02.015Z,100.00
2022-12-25T18:57:32.981Z,100.00
2022-12-25T19:00:05.146Z,100.00
2022-12-25T19:02:34.183Z,100.00
2022-12-25T19:05:05.499Z,100.00
2022-12-25T19:07:34.368Z,100.00
2022-12-25T19:10:04.813Z,100.00
2022-12-25T19:12:39.184Z,100.00
2022-12-25T19:15:18.456Z,100.00
2022-12-25T19:17:49.198Z,100.00
2022-12-25T19:20:19.729Z,100.00
2022-12-25T19:22:48.729Z,100.00
2022-12-25T19:25:42.920Z,100.00
2022-12-25T19:28:36.556Z,100.00
2022-12-25T19:31:07.618Z,100.00
2022-12-25T19:33:39.549Z,100.00
2022-12-25T19:36:11.757Z,100.00
2022-12-25T19:38:40.780Z,100.00
2022-12-25T19:41:13.599Z,100.00
2022-12-25T19:43:44.221Z,100.00
2022-12-25T19:46:19.891Z,100.00
2022-12-25T19:48:49.319Z,100.00
2022-12-25T19:51:21.255Z,100.00
2022-12-25T19:53:50.408Z,100.00
2022-12-25T19:56:21.378Z,100.00
2022-12-25T19:58:50.355Z,100.00
2022-12-25T20:01:22.586Z,100.00
2022-12-25T20:03:51.856Z,100.00
2022-12-25T20:06:24.966Z,99.89
2022-12-25T20:08:57.708Z,99.75
2022-12-25T20:11:32.636Z,99.73
2022-12-25T20:14:01.866Z,99.64
2022-12-25T20:16:30.681Z,99.80
2022-12-25T20:19:00.600Z,99.56
2022-12-25T20:21:31.032Z,99.42
2022-12-25T20:24:00.623Z,99.22
2022-12-25T20:26:33.275Z,99.58
2022-12-25T20:29:02.257Z,99.20
2022-12-25T20:31:34.744Z,98.88
2022-12-25T20:34:08.481Z,99.20
2022-12-25T20:36:38.251Z,98.67
2022-12-25T20:39:10.233Z,99.04
2022-12-25T20:41:41.605Z,98.53
2022-12-25T20:44:11.329Z,98.21
2022-12-25T20:46:40.416Z,98.46
2022-12-25T20:49:10.726Z,98.51
2022-12-25T20:51:39.736Z,98.09
2022-12-25T20:54:10.753Z,97.99
2022-12-25T20:56:41.063Z,97.67
2022-12-25T20:59:12.720Z,97.61
2022-12-25T21:01:43.052Z,97.87
2022-12-25T21:04:16.241Z,97.29
2022-12-25T21:06:45.563Z,97.14
2022-12-25T21:09:14.428Z,97.34
2022-12-25T21:11:44.764Z,97.10
2022-12-25T21:14:13.495Z,97.37
2022-12-25T21:16:43.980Z,97.32
2022-12-25T21:19:12.745Z,97.27
2022-12-25T21:21:43.163Z,96.97
2022-12-25T21:24:12.249Z,96.61
2022-12-25T21:26:47.595Z,96.40
2022-12-25T21:29:22.954Z,96.57
2022-12-25T21:32:09.776Z,96.46
2022-12-25T21:34:38.636Z,96.05
2022-12-25T21:37:09.322Z,96.34
2022-12-25T21:39:38.277Z,96.69
2022-12-25T21:42:07.141Z,96.00
2022-12-25T21:44:37.513Z,96.15
2022-12-25T21:47:06.446Z,95.75
2022-12-25T21:49:52.961Z,96.08
2022-12-25T21:52:21.707Z,96.01
2022-12-25T21:54:53.555Z,96.23
2022-12-25T21:57:22.391Z,95.74
2022-12-25T21:59:52.572Z,95.88
2022-12-25T22:02:21.608Z,95.80
2022-12-25T22:04:50.531Z,95.81
2022-12-25T22:07:18.287Z,95.48
2022-12-25T22:09:48.022Z,95.65
2022-12-25T22:12:44.991Z,95.92
2022-12-25T22:15:15.255Z,96.08
2022-12-25T22:18:03.082Z,95.62
2022-12-25T22:20:38.010Z,96.11
2022-12-25T22:23:07.132Z,95.77
2022-12-25T22:25:36.083Z,95.97
2022-12-25T22:28:04.976Z,96.38
2022-12-25T22:30:35.258Z,96.08
2022-12-25T22:33:04.050Z,95.83
2022-12-25T22:35:32.876Z,96.18
2022-12-25T22:38:01.747Z,95.66
2022-12-25T22:40:30.630Z,95.75
2022-12-25T22:42:59.464Z,95.38
2022-12-25T22:45:28.418Z,95.87
2022-12-25T22:47:59.006Z,96.09
2022-12-25T22:50:27.873Z,96.49
2022-12-25T22:52:56.710Z,96.35
2022-12-25T22:55:25.668Z,96.31
2022-12-25T22:57:55.792Z,97.14
2022-12-25T23:00:26.354Z,97.21
2022-12-25T23:02:55.225Z,98.11
2022-12-25T23:05:26.167Z,99.31
2022-12-25T23:07:55.048Z,99.37
2022-12-25T23:10:23.790Z,98.51
2022-12-25T23:13:10.122Z,100.00
2022-12-25T23:15:39.846Z,100.00
2022-12-25T23:18:25.660Z,100.00
2022-12-25T23:21:18.913Z,100.00
2022-12-25T23:24:05.241Z,100.00
2022-12-25T23:26:34.028Z,100.00
2022-12-25T23:29:19.784Z,100.00
2022-12-25T23:31:53.760Z,100.00
2022-12-25T23:34:23.466Z,100.00
2022-12-25T23:36:53.674Z,100.00
2022-12-25T23:44:22.183Z,100.00
2022-12-25T23:46:52.936Z,100.00
2022-12-25T23:49:21.905Z,100.00
2022-12-25T23:51:49.500Z,100.00
2022-12-25T23:54:21.606Z,100.00
2022-12-25T23:56:51.115Z,100.00
2022-12-25T23:59:20.609Z,100.00
